SUCCESS DAM (SCC)

Elevation: 692' · TULE R basin · Operator: US Army Corps of Engineers

Provisional data, subject to change.
Query executed Monday at 1:38:02   clock

Select a sensor type for a plot of data.
Note: Reservoir Flows are daily averages.

Earlier

Date RES ELE    STORAGE    RES CHG    TOC STO    ABV TOC    OUTFLOW    INFLOW    FNF    PPT INC    PPTINC4    TEMP MN    TEMP MX    WINDLEN    EVP PAN   
 FEET   AF   AF   AF   AF   CFS   CFS   CFS   INCHES   INCHES   DEG F   DEG F   MILES   INCHES  
08/01/2015 585.96 6155 -55 82300 -76145 24 -0 0 0.00 0.00 22 39 63 0.32
08/02/2015 585.89 6130 -25 82300 -76170 9 0 0 0.00 0.00 20 38 72 0.32
08/03/2015 585.83 6108 -22 82300 -76192 7 -0 0 0.00 0.00 19 37 70 0.31
08/04/2015 585.76 6083 -25 82300 -76217 9 -0 0 0.00 0.00 19 33 77 0.26
08/05/2015 585.69 6058 -25 82300 -76242 8 -2 -2 0.00 0.00 18 29 59 0.19
08/06/2015 585.64 6040 -18 82300 -76260 8 1 1 0.00 0.00 21 34 53 0.21
08/07/2015 585.58 6018 -22 82300 -76282 6 -1 -1 0.00 0.00 20 36 68 0.30
08/08/2015 585.53 6000 -18 82300 -76300 5 -1 -1 0.00 0.00 17 36 64 0.29
08/09/2015 585.47 5979 -21 82300 -76321 7 -0 0 0.00 0.00 17 37 54 0.28
08/10/2015 585.33 5929 -50 82300 -76371 21 -1 -1 0.00 0.00 19 36 62 0.29
08/11/2015 585.16 5869 -60 82300 -76431 24 -3 -3 0.00 0.00 17 35 70 0.29
08/12/2015 585.00 5813 -56 82300 -76487 25 1 1 0.00 0.00 18 35 64 0.29
08/13/2015 584.83 5754 -59 82300 -76546 25 -1 -1 0.00 0.00 16 37 59 0.28
08/14/2015 584.65 5692 -62 82300 -76608 28 -0 0 0.00 0.00 19 35 72 0.28
08/15/2015 584.48 5634 -58 82300 -76666 26 0 0 0.00 0.00 21 39 57 0.28
08/16/2015 584.38 5600 -34 82300 -76700 13 -1 -1 0.00 0.00 23 41 59 0.29
08/17/2015 584.32 5580 -20 82300 -76720 9 3 3 0.00 0.00 23 42 61 0.30
08/18/2015 584.23 5549 -31 82300 -76751 12 -1 -1 0.00 0.00 22 40 50 0.26
08/19/2015 584.13 5515 -34 82300 -76785 13 -2 -2 0.00 0.00 19 38 51 0.26
08/20/2015 584.04 5485 -30 82300 -76815 12 0 0 0.00 0.00 18 38 66 0.28
08/21/2015 583.97 5462 -23 82300 -76838 8 -0 -- 0.00 0.00 18 36 64 0.27
08/22/2015 583.91 5442 -20 82300 -76858 8 1 -- 0.00 0.00 18 37 59 0.26
08/23/2015 583.77 5395 -47 82300 -76905 19 -2 -- 0.00 0.00 18 38 57 0.27
08/24/2015 583.44 5287 -108 82300 -77013 49 -2 -- 0.00 0.00 19 37 56 0.26
08/25/2015 583.06 5164 -123 82300 -77136 55 -4 -- 0.00 0.00 19 38 62 0.25
08/26/2015 582.67 5039 -- 82300 -77261 57 -3 -- 0.00 0.00 22 39 67 0.28
08/27/2015 582.27 4914 -125 82300 -77386 56 -4 -- 0.00 0.00 20 38 65 0.27
08/28/2015 581.88 4793 -121 82300 -77507 55 -3 -- 0.00 0.00 22 41 56 0.26
08/29/2015 581.50 4678 -115 82300 -77622 52 -3 -- 0.00 0.00 21 36 67 0.27
08/30/2015 581.32 4624 -- 82300 -- 22 -3 -- 0.00 0.00 20 33 67 0.25
08/31/2015 -- -- -- -- -- -- -- -- -- -- -- -- -- --

Later | Latest

Warning! This data is preliminary and subject to revision.

Show SCC Map | Plot SCC Data | 1 Month SCC Data | Real-Time SCC Data | SCC Info